METAR Data
IDs: Format: Raw Decoded Include TAF

Data at: 0212 UTC 29 Nov 2020

METAR for:KIIB (Independence Muni, IA, US)
Text:KIIB 290155Z AUTO 22007KT 10SM CLR 04/01 A2998 RMK AO2 T00400006
Temperature: 4.0°C ( 39°F)
Dewpoint: 0.6°C ( 33°F) [RH = 78%]
Pressure (altimeter):29.98 inches Hg (1015.3 mb)
Winds:from the SW (220 degrees) at 8 MPH (7 knots; 3.6 m/s)
Visibility:10 or more sm (16+ km)
Ceiling:at least 12,000 feet AGL
Clouds:sky clear below 12,000 feet AGL
QC Flag:automated observation with no human augmentation